Terminal Aerodrome Forecast
Issued by NWS Pocatello, ID

Home | Current Version | Previous Version | Text Only | Print | Product List | Glossary On
Versions: 1 2 3 4 5 6 7 8 9 10 11 12 13
835
FTUS45 KPIH 131506 AAB
TAFPIH
TAF AMD
KPIH 131506Z 1315/1412 20014G20KT P6SM SCT100 BKN150
     FM131700 23014G25KT P6SM SCT050 SCT180
     FM132000 24020G30KT P6SM SCT040 SCT150
     FM140100 23014KT P6SM SCT025 BKN150
     FM140700 21014KT P6SM VCSH BKN040 OVC100=

USA.gov is the U.S. government's official web portal to all federal, state and local government web resources and services.